Harkers Island, North Carolina
Current Conditions -  °F | °C
As of 2:58 PM on Friday 19 Dec 2014 (Local Time) from KMRH Reporting Station
Clear Clear  
Wind Chill: 54°   Ceiling: Unl
Heat Index: 54°   Visibility: 10mi
Dew Point: 32°   Wind: 7mph
Humidity: 43%   Direction: 320°NW
Pressure: 30.11"   Gusts: NA
Location:  34.7°N, 76.56°W
Report Text: KMRH 191958Z AUTO 32006KT 10SM CLR 12/00 A3011 RMK AO2 SLP196 I1000 T01220000 TSNO
Loading
Personal Weather Stations






























Interactive Weather Map New forecast layout! Learn more

10-Day Weather Forecast

Advertisements
Track Severe Weather on mobile